createdAt,value
2023-09-11T00:00:04.646Z,20.20
2023-09-11T00:02:31.845Z,20.10
2023-09-11T00:04:59.065Z,20.10
2023-09-11T00:07:26.178Z,20.10
2023-09-11T00:09:53.284Z,20.00
2023-09-11T00:12:20.398Z,20.00
2023-09-11T00:14:47.548Z,20.00
2023-09-11T00:17:15.013Z,20.00
2023-09-11T00:19:42.236Z,19.90
2023-09-11T00:22:12.327Z,19.90
2023-09-11T00:24:39.390Z,19.90
2023-09-11T00:27:06.512Z,19.90
2023-09-11T00:29:33.793Z,19.80
2023-09-11T00:32:00.949Z,19.80
2023-09-11T00:34:28.320Z,19.80
2023-09-11T00:36:55.487Z,19.70
2023-09-11T00:39:22.675Z,19.70
2023-09-11T00:41:49.859Z,19.60
2023-09-11T00:44:17.025Z,19.60
2023-09-11T00:46:45.705Z,19.60
2023-09-11T00:49:12.809Z,19.50
2023-09-11T00:51:39.953Z,19.50
2023-09-11T00:54:07.317Z,19.50
2023-09-11T00:56:34.647Z,19.50
2023-09-11T00:59:01.852Z,19.50
2023-09-11T01:01:28.998Z,19.40
2023-09-11T01:03:56.148Z,19.40
2023-09-11T01:06:29.755Z,19.40
2023-09-11T01:09:02.761Z,19.30
2023-09-11T01:11:30.019Z,19.30
2023-09-11T01:13:58.948Z,19.30
2023-09-11T01:16:42.204Z,19.30
2023-09-11T01:19:31.329Z,19.30
2023-09-11T01:22:20.218Z,19.20
2023-09-11T01:24:47.384Z,19.20
2023-09-11T01:27:38.918Z,19.10
2023-09-11T01:30:10.004Z,19.10
2023-09-11T01:32:37.566Z,19.10
2023-09-11T01:35:05.089Z,19.10
2023-09-11T01:37:32.766Z,19.20
2023-09-11T01:39:59.929Z,19.20
2023-09-11T01:42:35.496Z,19.30
2023-09-11T01:45:02.615Z,19.30
2023-09-11T01:47:29.903Z,19.40
2023-09-11T01:49:57.067Z,19.50
2023-09-11T01:52:24.226Z,19.60
2023-09-11T01:54:51.355Z,19.60
2023-09-11T01:57:18.586Z,19.60
2023-09-11T01:59:45.668Z,19.70
2023-09-11T02:02:12.893Z,19.70
2023-09-11T02:04:40.258Z,19.80
2023-09-11T02:07:10.775Z,19.70
2023-09-11T02:09:37.931Z,19.70
2023-09-11T02:12:05.299Z,19.70
2023-09-11T02:14:32.496Z,19.70
2023-09-11T02:17:04.051Z,19.70
2023-09-11T02:19:32.439Z,19.70
2023-09-11T02:21:59.692Z,19.70
2023-09-11T02:24:26.870Z,19.70
2023-09-11T02:26:56.279Z,19.70
2023-09-11T02:29:23.642Z,19.70
2023-09-11T02:31:50.797Z,19.80
2023-09-11T02:34:17.930Z,19.70
2023-09-11T02:36:50.353Z,19.70
2023-09-11T02:39:17.482Z,19.70
2023-09-11T02:41:45.018Z,19.60
2023-09-11T02:44:12.137Z,19.60
2023-09-11T02:46:39.283Z,19.50
2023-09-11T02:49:06.328Z,19.60
2023-09-11T02:51:33.477Z,19.60
2023-09-11T02:54:00.906Z,19.60
2023-09-11T02:56:29.359Z,19.60
2023-09-11T02:58:57.445Z,19.60
2023-09-11T03:01:24.562Z,19.50
2023-09-11T03:03:54.247Z,19.50
2023-09-11T03:06:21.965Z,19.60
2023-09-11T03:08:49.206Z,19.50
2023-09-11T03:11:16.308Z,19.50
2023-09-11T03:13:53.293Z,19.50
2023-09-11T03:16:22.036Z,19.50
2023-09-11T03:18:55.613Z,19.50
2023-09-11T03:21:24.564Z,19.60
2023-09-11T03:23:51.750Z,19.50
2023-09-11T03:26:19.060Z,19.50
2023-09-11T03:28:51.523Z,19.50
2023-09-11T03:31:25.397Z,19.60
2023-09-11T03:33:53.711Z,19.60
2023-09-11T03:36:21.087Z,19.60
2023-09-11T03:38:48.630Z,19.60
2023-09-11T03:41:16.608Z,19.60
2023-09-11T03:43:44.334Z,19.60
2023-09-11T03:46:13.961Z,19.60
2023-09-11T03:48:46.639Z,19.70
2023-09-11T03:51:15.854Z,19.70
2023-09-11T03:53:46.846Z,19.70
2023-09-11T03:56:19.631Z,19.70
2023-09-11T03:58:47.345Z,19.70
2023-09-11T04:01:17.863Z,19.70
2023-09-11T04:06:47.386Z,19.70
2023-09-11T04:09:37.195Z,19.70
2023-09-11T04:12:33.238Z,19.80
2023-09-11T04:15:10.952Z,19.70
2023-09-11T04:17:38.295Z,19.80
2023-09-11T04:20:06.889Z,19.80
2023-09-11T04:22:34.106Z,19.80
2023-09-11T04:25:01.350Z,19.80
2023-09-11T04:27:28.488Z,19.80
2023-09-11T04:29:58.217Z,19.80
2023-09-11T04:32:25.827Z,19.80
2023-09-11T04:34:55.556Z,19.80
2023-09-11T04:37:22.773Z,19.70
2023-09-11T04:39:49.986Z,19.70
2023-09-11T04:42:17.127Z,19.70
2023-09-11T04:44:44.345Z,19.70
2023-09-11T04:47:12.775Z,19.70
2023-09-11T04:49:40.072Z,19.70
2023-09-11T04:52:07.361Z,19.70
2023-09-11T04:54:34.426Z,19.80
2023-09-11T04:57:01.745Z,19.70
2023-09-11T04:59:29.152Z,19.80
2023-09-11T05:01:56.552Z,19.80
2023-09-11T05:04:23.872Z,19.80
2023-09-11T05:06:51.692Z,19.70
2023-09-11T05:09:19.027Z,19.80
2023-09-11T05:11:47.397Z,19.80
2023-09-11T05:14:15.192Z,19.80
2023-09-11T05:16:42.462Z,19.80
2023-09-11T05:19:09.693Z,19.80
2023-09-11T05:21:38.000Z,19.80
2023-09-11T05:24:05.880Z,19.80
2023-09-11T05:26:33.573Z,19.80
2023-09-11T05:29:00.753Z,19.90
2023-09-11T05:31:28.055Z,19.90
2023-09-11T05:33:55.269Z,19.80
2023-09-11T05:36:22.639Z,19.90
2023-09-11T05:38:51.004Z,19.90
2023-09-11T05:41:21.801Z,19.90
2023-09-11T05:43:48.903Z,20.00
2023-09-11T05:46:16.122Z,20.00
2023-09-11T05:48:43.681Z,20.00
2023-09-11T05:51:11.150Z,20.00
2023-09-11T05:53:38.555Z,20.10
2023-09-11T05:56:07.016Z,20.10
2023-09-11T06:03:37.268Z,20.10
2023-09-11T06:06:18.951Z,20.10
2023-09-11T06:08:54.666Z,20.10
2023-09-11T06:11:22.064Z,20.10
2023-09-11T06:13:50.330Z,20.10
2023-09-11T06:16:17.506Z,20.10
2023-09-11T06:18:46.529Z,20.10
2023-09-11T06:21:14.356Z,20.10
2023-09-11T06:23:41.658Z,20.10
2023-09-11T06:26:11.210Z,20.20
2023-09-11T06:28:38.850Z,20.20
2023-09-11T06:31:06.521Z,20.30
2023-09-11T06:33:33.920Z,20.40
2023-09-11T06:36:01.286Z,20.50
2023-09-11T06:38:28.549Z,20.50
2023-09-11T06:40:58.343Z,20.50
2023-09-11T06:43:25.502Z,20.50
2023-09-11T06:45:54.179Z,20.60
2023-09-11T06:48:24.076Z,20.60
2023-09-11T06:50:54.336Z,20.80
2023-09-11T06:53:21.606Z,20.80
2023-09-11T06:55:49.199Z,20.90
2023-09-11T06:58:18.849Z,20.90
2023-09-11T07:01:40.288Z,21.10
2023-09-11T07:04:23.625Z,21.20
2023-09-11T07:07:22.108Z,21.30
2023-09-11T07:10:22.757Z,21.30
2023-09-11T07:16:35.612Z,21.50
2023-09-11T07:19:55.355Z,21.60
2023-09-11T07:22:53.130Z,21.70
2023-09-11T07:26:07.670Z,21.70
2023-09-11T07:32:24.572Z,21.70
2023-09-11T07:33:08.173Z,21.60
2023-09-11T07:35:55.055Z,21.40
2023-09-11T07:38:40.900Z,21.50
2023-09-11T07:41:34.645Z,21.40
2023-09-11T07:44:04.997Z,21.30
2023-09-11T07:46:33.948Z,21.30
2023-09-11T07:49:01.163Z,21.30
2023-09-11T07:51:37.116Z,21.40
2023-09-11T07:54:04.588Z,21.40
2023-09-11T07:59:39.046Z,21.60
2023-09-11T08:02:18.571Z,21.70
2023-09-11T08:04:45.767Z,21.70
2023-09-11T08:07:13.469Z,21.70
2023-09-11T08:09:40.529Z,21.60
2023-09-11T08:12:07.951Z,21.70
2023-09-11T08:14:35.162Z,21.80
2023-09-11T08:17:02.306Z,21.80
2023-09-11T08:19:29.519Z,21.80
2023-09-11T08:21:56.734Z,21.80
2023-09-11T08:24:26.926Z,21.80
2023-09-11T08:26:54.276Z,21.90
2023-09-11T08:29:22.261Z,21.90
2023-09-11T08:31:49.642Z,22.00
2023-09-11T08:34:17.004Z,22.00
2023-09-11T08:36:46.132Z,22.00
2023-09-11T08:39:13.506Z,22.10
2023-09-11T08:41:41.589Z,22.10
2023-09-11T08:44:08.783Z,22.20
2023-09-11T08:46:36.254Z,22.30
2023-09-11T08:49:56.822Z,22.30
2023-09-11T08:52:57.954Z,22.30
2023-09-11T08:55:53.662Z,22.40
2023-09-11T08:58:26.540Z,22.30
2023-09-11T09:00:58.854Z,22.40
2023-09-11T09:03:50.315Z,22.30
2023-09-11T09:06:19.879Z,22.30
2023-09-11T09:09:05.908Z,22.30
2023-09-11T09:14:17.647Z,22.60
2023-09-11T09:17:08.513Z,22.50
2023-09-11T09:22:56.629Z,22.30
2023-09-11T09:25:26.498Z,22.30
2023-09-11T09:27:53.929Z,22.50
2023-09-11T09:30:22.063Z,22.60
2023-09-11T09:32:50.378Z,22.70
2023-09-11T09:35:30.539Z,22.60
2023-09-11T09:37:59.800Z,22.70
2023-09-11T09:40:39.278Z,22.60
2023-09-11T09:43:15.403Z,22.60
2023-09-11T09:45:48.029Z,22.50
2023-09-11T09:48:16.383Z,22.50
2023-09-11T09:50:59.604Z,22.50
2023-09-11T09:53:27.658Z,22.50
2023-09-11T09:56:01.192Z,22.50
2023-09-11T09:58:30.124Z,22.50
2023-09-11T10:01:11.573Z,22.50
2023-09-11T10:03:49.125Z,22.50
2023-09-11T10:06:24.414Z,22.60
2023-09-11T10:09:11.427Z,22.70
2023-09-11T10:11:39.358Z,22.80
2023-09-11T10:14:08.271Z,22.70
2023-09-11T10:16:35.599Z,22.70
2023-09-11T10:19:02.912Z,22.70
2023-09-11T10:21:30.624Z,22.70
2023-09-11T10:24:01.803Z,22.70
2023-09-11T10:26:47.208Z,22.60
2023-09-11T10:29:55.884Z,22.60
2023-09-11T10:32:28.351Z,22.80
2023-09-11T10:35:00.330Z,22.90
2023-09-11T10:37:28.474Z,23.00
2023-09-11T10:39:58.217Z,23.10
2023-09-11T10:42:25.571Z,23.20
2023-09-11T10:44:55.772Z,23.30
2023-09-11T10:47:24.310Z,23.30
2023-09-11T10:49:51.846Z,23.50
2023-09-11T10:52:19.698Z,23.60
2023-09-11T10:54:48.783Z,23.80
2023-09-11T10:57:16.208Z,24.00
2023-09-11T10:59:43.414Z,24.10
2023-09-11T11:02:10.634Z,24.20
2023-09-11T11:04:37.806Z,24.40
2023-09-11T11:07:05.116Z,24.60
2023-09-11T11:09:38.756Z,24.70
2023-09-11T11:12:10.480Z,24.70
2023-09-11T11:14:37.967Z,24.90
2023-09-11T11:17:12.835Z,25.00
2023-09-11T11:19:53.416Z,24.80
2023-09-11T11:22:34.179Z,24.80
2023-09-11T11:25:10.203Z,24.70
2023-09-11T11:27:40.407Z,24.90
2023-09-11T11:30:08.154Z,25.20
2023-09-11T11:32:39.055Z,25.30
2023-09-11T11:35:09.117Z,25.50
2023-09-11T11:37:38.433Z,25.60
2023-09-11T11:40:10.497Z,25.70
2023-09-11T11:42:38.504Z,25.60
2023-09-11T11:45:06.946Z,25.40
2023-09-11T11:47:34.604Z,25.50
2023-09-11T11:50:12.058Z,25.70
2023-09-11T11:52:39.206Z,26.00
2023-09-11T11:55:23.079Z,26.10
2023-09-11T11:57:56.735Z,26.20
2023-09-11T12:00:23.868Z,26.20
2023-09-11T12:02:51.559Z,26.10
2023-09-11T12:05:19.110Z,26.00
2023-09-11T12:07:46.539Z,26.10
2023-09-11T12:10:13.829Z,25.90
2023-09-11T12:12:41.874Z,25.70
2023-09-11T12:15:10.718Z,25.60
2023-09-11T12:17:47.419Z,25.70
2023-09-11T12:20:19.558Z,25.70
2023-09-11T12:22:47.421Z,25.70
2023-09-11T12:25:14.905Z,25.70
2023-09-11T12:27:43.413Z,25.70
2023-09-11T12:30:12.147Z,25.60
2023-09-11T12:32:44.887Z,25.60
2023-09-11T12:35:12.345Z,25.70
2023-09-11T12:37:42.475Z,25.70
2023-09-11T12:40:12.878Z,25.70
2023-09-11T12:42:40.781Z,25.70
2023-09-11T12:45:20.995Z,25.80
2023-09-11T12:47:48.572Z,25.90
2023-09-11T12:50:15.787Z,25.90
2023-09-11T12:52:49.135Z,26.00
2023-09-11T12:55:35.261Z,25.90
2023-09-11T12:58:03.239Z,25.90
2023-09-11T13:00:35.477Z,25.90
2023-09-11T13:03:03.889Z,25.90
2023-09-11T13:05:31.553Z,25.90
2023-09-11T13:07:59.274Z,26.00
2023-09-11T13:10:26.904Z,26.10
2023-09-11T13:12:54.233Z,26.20
2023-09-11T13:15:21.739Z,26.30
2023-09-11T13:17:49.075Z,26.40
2023-09-11T13:20:16.330Z,26.50
2023-09-11T13:22:44.097Z,26.60
2023-09-11T13:25:13.868Z,26.70
2023-09-11T13:27:41.301Z,26.60
2023-09-11T13:30:09.330Z,26.70
2023-09-11T13:32:39.756Z,26.60
2023-09-11T13:35:07.509Z,26.70
2023-09-11T13:37:34.948Z,26.70
2023-09-11T13:40:02.069Z,26.60
2023-09-11T13:42:29.176Z,26.50
2023-09-11T13:44:57.280Z,26.50
2023-09-11T13:47:25.131Z,26.40
2023-09-11T13:49:52.695Z,26.40
2023-09-11T13:52:20.510Z,26.40
2023-09-11T13:54:48.121Z,26.60
2023-09-11T13:57:15.421Z,26.80
2023-09-11T13:59:42.728Z,27.10
2023-09-11T14:02:10.014Z,27.20
2023-09-11T14:04:37.437Z,27.20
2023-09-11T14:07:05.011Z,27.20
2023-09-11T14:09:32.439Z,27.00
2023-09-11T14:11:59.845Z,27.10
2023-09-11T14:14:27.184Z,26.90
2023-09-11T14:16:54.333Z,26.80
2023-09-11T14:19:21.624Z,26.70
2023-09-11T14:21:48.895Z,26.90
2023-09-11T14:24:17.428Z,27.00
2023-09-11T14:26:47.765Z,26.90
2023-09-11T14:29:15.048Z,26.70
2023-09-11T14:31:44.392Z,26.60
2023-09-11T14:34:11.907Z,26.60
2023-09-11T14:36:39.013Z,26.60
2023-09-11T14:39:06.296Z,26.50
2023-09-11T14:41:33.508Z,26.50
2023-09-11T14:44:00.834Z,26.70
2023-09-11T14:46:28.214Z,26.70
2023-09-11T14:48:56.527Z,26.70
2023-09-11T14:51:23.898Z,26.80
2023-09-11T14:53:51.429Z,26.80
2023-09-11T14:56:18.626Z,26.80
2023-09-11T14:58:45.805Z,26.80
2023-09-11T15:01:13.096Z,27.00
2023-09-11T15:03:41.434Z,27.10
2023-09-11T15:06:08.877Z,27.00
2023-09-11T15:08:35.962Z,27.00
2023-09-11T15:11:06.264Z,27.00
2023-09-11T15:13:36.541Z,26.80
2023-09-11T15:16:03.926Z,26.80
2023-09-11T15:18:32.486Z,26.70
2023-09-11T15:20:59.804Z,26.50
2023-09-11T15:23:26.932Z,26.50
2023-09-11T15:25:54.088Z,26.60
2023-09-11T15:28:21.235Z,26.60
2023-09-11T15:30:55.024Z,26.50
2023-09-11T15:33:29.121Z,26.70
2023-09-11T15:36:08.655Z,26.70
2023-09-11T15:38:39.782Z,26.80
2023-09-11T15:41:10.876Z,26.90
2023-09-11T15:43:43.191Z,27.00
2023-09-11T15:46:15.904Z,27.20
2023-09-11T15:48:47.020Z,27.20
2023-09-11T15:51:15.422Z,27.20
2023-09-11T15:53:42.724Z,27.10
2023-09-11T15:56:16.031Z,27.10
2023-09-11T15:58:44.552Z,27.00
2023-09-11T16:01:11.820Z,26.90
2023-09-11T16:03:39.198Z,26.80
2023-09-11T16:06:06.811Z,26.70
2023-09-11T16:08:34.095Z,26.70
2023-09-11T16:11:03.318Z,26.80
2023-09-11T16:13:30.543Z,26.70
2023-09-11T16:15:57.956Z,26.70
2023-09-11T16:18:28.271Z,26.70
2023-09-11T16:20:55.954Z,26.60
2023-09-11T16:23:23.186Z,26.50
2023-09-11T16:25:50.594Z,26.40
2023-09-11T16:28:17.784Z,26.30
2023-09-11T16:30:45.049Z,26.20
2023-09-11T16:33:14.253Z,26.20
2023-09-11T16:35:43.035Z,26.20
2023-09-11T16:38:10.343Z,26.10
2023-09-11T16:40:37.480Z,26.10
2023-09-11T16:43:04.988Z,26.10
2023-09-11T16:45:32.381Z,25.90
2023-09-11T16:47:59.780Z,25.70
2023-09-11T16:50:27.110Z,25.60
2023-09-11T16:52:57.147Z,25.40
2023-09-11T16:55:24.494Z,25.30
2023-09-11T16:57:52.307Z,25.10
2023-09-11T17:00:20.070Z,25.10
2023-09-11T17:02:47.256Z,25.00
2023-09-11T17:05:14.658Z,25.00
2023-09-11T17:07:41.777Z,25.00
2023-09-11T17:10:09.336Z,25.00
2023-09-11T17:12:40.821Z,24.90
2023-09-11T17:15:11.253Z,24.90
2023-09-11T17:17:38.761Z,24.80
2023-09-11T17:20:06.609Z,24.80
2023-09-11T17:22:34.454Z,24.70
2023-09-11T17:25:01.652Z,24.60
2023-09-11T17:27:29.624Z,24.50
2023-09-11T17:29:56.766Z,24.40
2023-09-11T17:32:24.706Z,24.30
2023-09-11T17:34:52.231Z,24.10
2023-09-11T17:37:19.482Z,24.00
2023-09-11T17:39:46.705Z,23.90
2023-09-11T17:42:13.849Z,23.90
2023-09-11T17:44:41.168Z,23.80
2023-09-11T17:47:11.205Z,23.80
2023-09-11T17:49:38.488Z,23.70
2023-09-11T17:52:06.155Z,23.60
2023-09-11T17:54:33.511Z,23.60
2023-09-11T17:57:00.792Z,23.60
2023-09-11T17:59:27.854Z,23.50
2023-09-11T18:01:55.035Z,23.50
2023-09-11T18:04:22.901Z,23.40
2023-09-11T18:06:50.245Z,23.40
2023-09-11T18:09:17.542Z,23.30
2023-09-11T18:11:48.772Z,23.30
2023-09-11T18:14:15.938Z,23.20
2023-09-11T18:16:43.207Z,23.10
2023-09-11T18:19:12.943Z,23.10
2023-09-11T18:21:41.976Z,23.00
2023-09-11T18:24:09.298Z,23.00
2023-09-11T18:26:37.315Z,23.00
2023-09-11T18:29:18.091Z,22.90
2023-09-11T18:31:45.350Z,22.80
2023-09-11T18:34:13.077Z,22.70
2023-09-11T18:36:40.809Z,22.60
2023-09-11T18:39:08.620Z,22.60
2023-09-11T18:41:35.851Z,22.50
2023-09-11T18:44:03.168Z,22.50
2023-09-11T18:46:30.317Z,22.40
2023-09-11T18:48:58.675Z,22.30
2023-09-11T18:51:28.870Z,22.20
2023-09-11T18:53:56.454Z,22.30
2023-09-11T18:56:23.525Z,22.20
2023-09-11T18:58:51.627Z,22.20
2023-09-11T19:01:19.326Z,22.10
2023-09-11T19:03:51.404Z,22.10
2023-09-11T19:06:21.096Z,22.10
2023-09-11T19:08:48.564Z,22.00
2023-09-11T19:11:15.717Z,22.00
2023-09-11T19:13:43.136Z,22.00
2023-09-11T19:16:10.469Z,22.00
2023-09-11T19:18:38.511Z,22.00
2023-09-11T19:21:09.569Z,22.10
2023-09-11T19:23:37.124Z,22.10
2023-09-11T19:26:05.367Z,22.10
2023-09-11T19:28:35.331Z,22.10
2023-09-11T19:31:03.188Z,22.10
2023-09-11T19:33:31.664Z,22.00
2023-09-11T19:35:59.156Z,22.00
2023-09-11T19:38:26.375Z,21.90
2023-09-11T19:40:53.521Z,21.90
2023-09-11T19:43:21.243Z,21.90
2023-09-11T19:45:48.351Z,21.90
2023-09-11T19:48:15.620Z,21.80
2023-09-11T19:50:42.739Z,21.80
2023-09-11T19:53:11.760Z,21.70
2023-09-11T19:55:40.856Z,21.80
2023-09-11T19:58:08.224Z,21.70
2023-09-11T20:00:35.324Z,21.70
2023-09-11T20:03:02.964Z,21.70
2023-09-11T20:05:30.264Z,21.70
2023-09-11T20:07:57.690Z,21.70
2023-09-11T20:10:24.800Z,21.70
2023-09-11T20:12:52.464Z,21.70
2023-09-11T20:15:19.749Z,21.60
2023-09-11T20:17:46.920Z,21.50
2023-09-11T20:20:14.977Z,21.50
2023-09-11T20:22:42.174Z,21.50
2023-09-11T20:25:09.647Z,21.40
2023-09-11T20:27:36.760Z,21.40
2023-09-11T20:30:04.284Z,21.30
2023-09-11T20:32:33.777Z,21.30
2023-09-11T20:35:03.834Z,21.30
2023-09-11T20:37:32.076Z,21.20
2023-09-11T20:39:59.402Z,21.30
2023-09-11T20:42:27.715Z,21.30
2023-09-11T20:45:04.477Z,21.30
2023-09-11T20:47:33.483Z,21.30
2023-09-11T20:50:00.797Z,21.20
2023-09-11T20:52:31.078Z,21.10
2023-09-11T20:54:58.167Z,21.10
2023-09-11T20:57:25.566Z,21.00
2023-09-11T20:59:53.425Z,21.00
2023-09-11T21:02:20.798Z,20.90
2023-09-11T21:04:50.959Z,20.90
2023-09-11T21:07:18.119Z,20.80
2023-09-11T21:09:46.543Z,20.80
2023-09-11T21:12:13.915Z,20.70
2023-09-11T21:14:41.048Z,20.60
2023-09-11T21:17:08.198Z,20.60
2023-09-11T21:19:35.432Z,20.60
2023-09-11T21:22:03.033Z,20.50
2023-09-11T21:24:30.197Z,20.50
2023-09-11T21:27:04.916Z,20.40
2023-09-11T21:29:32.106Z,20.40
2023-09-11T21:32:00.525Z,20.40
2023-09-11T21:34:27.721Z,20.30
2023-09-11T21:36:57.059Z,20.30
2023-09-11T21:39:24.149Z,20.30
2023-09-11T21:41:51.369Z,20.30
2023-09-11T21:44:18.414Z,20.30
2023-09-11T21:46:45.524Z,20.30
2023-09-11T21:49:12.689Z,20.30
2023-09-11T21:51:39.744Z,20.40
2023-09-11T21:54:14.842Z,20.40
2023-09-11T21:56:43.946Z,20.40
2023-09-11T21:59:11.017Z,20.40
2023-09-11T22:01:38.959Z,20.40
2023-09-11T22:04:06.714Z,20.30
2023-09-11T22:06:34.044Z,20.30
2023-09-11T22:09:01.240Z,20.20
2023-09-11T22:11:28.522Z,20.20
2023-09-11T22:13:55.610Z,20.20
2023-09-11T22:16:22.849Z,20.10
2023-09-11T22:18:50.003Z,20.00
2023-09-11T22:21:18.951Z,20.00
2023-09-11T22:23:46.065Z,20.00
2023-09-11T22:26:13.153Z,20.00
2023-09-11T22:28:40.150Z,20.00
2023-09-11T22:31:08.578Z,20.00
2023-09-11T22:33:38.809Z,20.00
2023-09-11T22:36:08.712Z,20.00
2023-09-11T22:38:35.988Z,20.00
2023-09-11T22:41:03.138Z,20.00
2023-09-11T22:43:30.298Z,20.10
2023-09-11T22:45:57.484Z,20.10
2023-09-11T22:48:24.749Z,20.10
2023-09-11T22:50:51.976Z,20.20
2023-09-11T22:53:19.022Z,20.10
2023-09-11T22:55:46.091Z,20.10
2023-09-11T22:58:13.209Z,20.10
2023-09-11T23:00:44.775Z,20.00
2023-09-11T23:03:12.209Z,19.90
2023-09-11T23:05:39.494Z,19.80
2023-09-11T23:08:07.012Z,19.80
2023-09-11T23:10:34.192Z,19.80
2023-09-11T23:13:01.387Z,19.70
2023-09-11T23:15:30.443Z,19.70
2023-09-11T23:17:57.710Z,19.70
2023-09-11T23:20:25.049Z,19.70
2023-09-11T23:22:52.089Z,19.70
2023-09-11T23:25:19.360Z,19.70
2023-09-11T23:27:46.351Z,19.70
2023-09-11T23:30:13.888Z,19.70
2023-09-11T23:32:41.103Z,19.70
2023-09-11T23:35:08.677Z,19.70
2023-09-11T23:37:35.824Z,19.70
2023-09-11T23:40:03.153Z,19.70
2023-09-11T23:42:30.559Z,19.70
2023-09-11T23:44:57.654Z,19.70
2023-09-11T23:47:24.865Z,19.70
2023-09-11T23:49:52.107Z,19.60
2023-09-11T23:52:26.186Z,19.60
2023-09-11T23:54:55.270Z,19.60
2023-09-11T23:57:22.504Z,19.50
2023-09-11T23:59:49.651Z,19.50
